createdAt,value
2022-11-19T06:05:16.495Z,18.75
2022-11-19T06:08:20.120Z,18.30
2022-11-19T06:10:47.674Z,18.95
2022-11-19T06:13:14.831Z,19.42
2022-11-19T06:15:41.381Z,19.38
2022-11-19T06:18:08.558Z,19.05
2022-11-19T06:20:35.089Z,20.13
2022-11-19T06:23:02.225Z,19.35
2022-11-19T06:25:29.543Z,20.02
2022-11-19T06:27:56.694Z,22.88
2022-11-19T06:30:23.224Z,19.10
2022-11-19T06:32:50.365Z,19.85
2022-11-19T06:35:17.109Z,18.70
2022-11-19T06:37:44.385Z,22.83
2022-11-19T06:40:11.681Z,19.77
2022-11-19T06:42:38.947Z,18.52
2022-11-19T06:45:14.782Z,17.08
2022-11-19T06:47:42.731Z,20.38
2022-11-19T06:50:10.568Z,19.10
2022-11-19T06:52:38.215Z,21.48
2022-11-19T06:55:05.174Z,23.08
2022-11-19T06:57:32.517Z,22.35
2022-11-19T06:59:59.066Z,22.35
2022-11-19T07:02:29.040Z,21.42
2022-11-19T07:04:55.717Z,24.42
2022-11-19T07:07:22.942Z,25.08
2022-11-19T07:09:49.515Z,23.90
2022-11-19T07:12:16.681Z,21.60
2022-11-19T07:14:43.290Z,19.95
2022-11-19T07:17:10.166Z,20.38
2022-11-19T07:19:36.731Z,21.85
2022-11-19T07:22:03.940Z,22.98
2022-11-19T07:24:30.469Z,23.50
2022-11-19T07:26:57.699Z,21.10
2022-11-19T07:29:24.409Z,19.55
2022-11-19T07:31:53.492Z,20.98
2022-11-19T07:34:20.690Z,20.97
2022-11-19T07:36:48.685Z,23.67
2022-11-19T07:39:15.560Z,21.42
2022-11-19T07:42:01.365Z,20.95
2022-11-19T07:44:27.922Z,20.10
2022-11-19T07:46:55.075Z,22.08
2022-11-19T07:49:22.192Z,21.58
2022-11-19T07:51:49.358Z,21.98
2022-11-19T07:54:16.307Z,28.88
2022-11-19T07:56:43.872Z,21.55
2022-11-19T07:59:11.125Z,23.02
2022-11-19T08:01:38.855Z,21.70
2022-11-19T08:04:05.784Z,27.23
2022-11-19T08:06:34.873Z,27.45
2022-11-19T08:09:03.810Z,27.87
2022-11-19T08:11:31.399Z,28.67
2022-11-19T08:14:01.796Z,25.15
2022-11-19T08:16:48.148Z,26.73
2022-11-19T08:19:16.141Z,25.88
2022-11-19T08:21:46.035Z,28.40
2022-11-19T08:24:13.791Z,28.92
2022-11-19T08:26:41.397Z,25.58
2022-11-19T08:29:13.029Z,23.75
2022-11-19T08:31:45.222Z,26.67
2022-11-19T08:34:12.279Z,27.63
2022-11-19T08:36:39.967Z,31.17
2022-11-19T08:39:06.981Z,28.08
2022-11-19T08:41:53.002Z,25.55
2022-11-19T08:44:20.083Z,28.92
2022-11-19T08:46:47.729Z,27.33
2022-11-19T08:49:14.463Z,23.80
2022-11-19T08:51:41.809Z,25.77
2022-11-19T08:54:08.742Z,26.30
2022-11-19T08:56:35.991Z,22.70
2022-11-19T08:59:03.486Z,22.50
2022-11-19T09:01:31.143Z,24.45
2022-11-19T09:03:57.898Z,21.15
2022-11-19T09:06:25.292Z,23.92
2022-11-19T09:08:52.025Z,21.80
2022-11-19T09:11:21.263Z,20.85
2022-11-19T09:13:48.825Z,29.58
2022-11-19T09:16:15.775Z,29.02
2022-11-19T09:18:43.259Z,25.50
2022-11-19T09:21:11.176Z,27.10
2022-11-19T09:23:39.430Z,24.17
2022-11-19T09:26:08.991Z,24.30
2022-11-19T09:28:36.538Z,20.20
2022-11-19T09:31:11.780Z,20.08
2022-11-19T09:33:44.766Z,24.13
2022-11-19T09:36:12.670Z,21.98
2022-11-19T09:38:41.184Z,18.17
2022-11-19T09:41:29.737Z,18.63
2022-11-19T09:44:49.990Z,17.77
2022-11-19T09:47:27.330Z,17.38
2022-11-19T09:50:18.254Z,16.48
2022-11-19T09:52:56.450Z,16.88
2022-11-19T09:55:31.710Z,16.45
2022-11-19T09:58:00.394Z,17.73
2022-11-19T10:00:30.002Z,15.30
2022-11-19T10:02:59.305Z,18.35
2022-11-19T10:05:35.247Z,15.73
2022-11-19T10:08:23.046Z,17.50
2022-11-19T10:10:55.183Z,14.55
2022-11-19T10:13:49.665Z,13.23
2022-11-19T10:16:28.682Z,11.38
2022-11-19T10:19:16.785Z,13.55
2022-11-19T10:21:59.105Z,11.50
2022-11-19T10:24:45.284Z,13.35
2022-11-19T10:27:30.812Z,16.25
2022-11-19T10:30:02.994Z,12.63
2022-11-19T10:32:37.505Z,13.93
2022-11-19T10:35:15.293Z,14.02
2022-11-19T10:37:53.754Z,16.20
2022-11-19T10:40:24.157Z,11.38
2022-11-19T10:43:01.868Z,10.13
2022-11-19T10:45:29.997Z,13.73
2022-11-19T10:48:09.385Z,11.43
2022-11-19T10:50:36.518Z,11.65
2022-11-19T10:53:26.983Z,11.48
2022-11-19T10:56:00.524Z,12.18
2022-11-19T10:58:37.225Z,10.82
2022-11-19T11:01:14.203Z,13.73
2022-11-19T11:03:49.351Z,11.50
2022-11-19T11:06:15.946Z,11.75
2022-11-19T11:08:51.966Z,11.27
2022-11-19T11:11:50.177Z,13.85
2022-11-19T11:14:38.941Z,16.33
2022-11-19T11:17:25.899Z,10.10
2022-11-19T11:20:03.753Z,11.77
2022-11-19T11:22:31.330Z,12.88
2022-11-19T11:25:04.258Z,11.48
2022-11-19T11:27:35.864Z,10.95
2022-11-19T11:30:05.984Z,12.07
2022-11-19T11:32:33.379Z,10.13
2022-11-19T11:35:05.113Z,11.05
2022-11-19T11:37:34.191Z,11.15
2022-11-19T11:40:01.222Z,9.93
2022-11-19T11:42:29.775Z,11.68
2022-11-19T11:44:59.838Z,9.98
2022-11-19T11:47:29.122Z,10.20
2022-11-19T18:41:39.743Z,9.65
2022-11-19T18:44:26.326Z,14.25
2022-11-19T18:46:52.893Z,7.57
2022-11-19T18:49:19.889Z,11.02
2022-11-19T18:51:47.850Z,10.60
2022-11-19T18:54:14.938Z,7.47
2022-11-19T18:56:41.625Z,11.25
2022-11-19T19:01:24.271Z,12.13
2022-11-19T19:03:52.272Z,9.65
2022-11-19T19:06:19.614Z,12.43
2022-11-19T19:08:46.601Z,11.43
2022-11-19T19:11:32.234Z,10.45
2022-11-19T19:13:59.012Z,9.07
2022-11-19T19:16:26.324Z,13.38
2022-11-19T19:18:52.900Z,9.05
2022-11-19T19:21:22.011Z,8.77
2022-11-19T19:23:49.184Z,12.45
2022-11-19T19:26:17.841Z,12.25
2022-11-19T19:28:50.370Z,14.90
2022-11-19T19:31:18.315Z,11.75
2022-11-19T19:33:48.345Z,12.27
2022-11-19T19:36:16.520Z,10.68
2022-11-19T19:38:43.356Z,10.63
2022-11-19T19:41:16.727Z,10.40
2022-11-19T19:43:43.980Z,11.30
2022-11-19T19:46:16.561Z,10.60
2022-11-19T19:48:48.286Z,9.05
2022-11-19T19:51:16.798Z,9.63
2022-11-19T19:53:43.690Z,10.57
2022-11-19T19:56:12.331Z,9.60
2022-11-19T19:58:39.269Z,10.75
2022-11-19T20:01:08.346Z,13.55
2022-11-19T20:03:36.272Z,10.43
2022-11-19T20:06:05.712Z,10.98
2022-11-19T20:08:33.954Z,10.55
2022-11-19T20:11:03.387Z,9.53
2022-11-19T20:13:32.017Z,8.70
2022-11-19T20:16:17.564Z,10.52
2022-11-19T20:18:46.571Z,8.40
2022-11-19T20:21:16.556Z,9.50
2022-11-19T20:23:43.558Z,8.40
2022-11-19T20:26:13.066Z,10.32
2022-11-19T20:28:40.219Z,9.55
2022-11-19T20:31:10.746Z,10.70
2022-11-19T20:33:38.534Z,8.48
2022-11-19T20:36:07.330Z,6.97
2022-11-19T20:38:38.793Z,8.03
2022-11-19T20:41:28.379Z,8.07
2022-11-19T20:46:41.868Z,8.30
2022-11-19T20:49:10.566Z,7.78
2022-11-19T20:51:40.844Z,8.35
2022-11-19T20:54:08.856Z,6.90
2022-11-19T20:56:37.058Z,7.32
2022-11-19T20:59:04.849Z,10.07
2022-11-19T21:01:33.108Z,8.50
2022-11-19T21:03:59.985Z,8.95
2022-11-19T21:06:27.310Z,8.27
2022-11-19T21:08:53.860Z,8.05
2022-11-19T21:11:21.055Z,7.18
2022-11-19T21:13:47.635Z,6.60
2022-11-19T21:16:23.351Z,7.63
2022-11-19T21:18:50.657Z,7.80
2022-11-19T21:21:19.604Z,7.45
2022-11-19T21:23:46.407Z,7.88
2022-11-19T21:26:19.885Z,7.05
2022-11-19T21:28:49.440Z,7.28
